sensor_id;sensor_type;location;lat;lon;timestamp;pressure;altitude;pressure_sealevel;temperature;humidity
62632;BME280;48703;51.248;-0.546;2022-07-29T00:00:55;101173;;;15.43;97.44
62632;BME280;48703;51.248;-0.546;2022-07-29T00:03:57;101170;;;15.39;97.87
62632;BME280;48703;51.248;-0.546;2022-07-29T00:06:59;101171;;;15.33;98.47
62632;BME280;48703;51.248;-0.546;2022-07-29T00:10:01;101169;;;15.29;98.86
62632;BME280;48703;51.248;-0.546;2022-07-29T00:13:03;101167;;;15.24;99.74
62632;BME280;48703;51.248;-0.546;2022-07-29T00:16:04;101165;;;15.18;100.00
62632;BME280;48703;51.248;-0.546;2022-07-29T00:19:06;101166;;;15.12;99.54
62632;BME280;48703;51.248;-0.546;2022-07-29T00:22:08;101165;;;15.07;99.94
62632;BME280;48703;51.248;-0.546;2022-07-29T00:25:11;101163;;;15.06;100.00
62632;BME280;48703;51.248;-0.546;2022-07-29T00:28:12;101161;;;15.02;99.67
62632;BME280;48703;51.248;-0.546;2022-07-29T00:31:14;101162;;;14.99;100.00
62632;BME280;48703;51.248;-0.546;2022-07-29T00:34:16;101164;;;14.99;100.00
62632;BME280;48703;51.248;-0.546;2022-07-29T00:37:17;101163;;;14.95;99.96
62632;BME280;48703;51.248;-0.546;2022-07-29T00:40:19;101162;;;14.90;100.00
62632;BME280;48703;51.248;-0.546;2022-07-29T00:43:21;101162;;;14.84;100.00
62632;BME280;48703;51.248;-0.546;2022-07-29T00:46:23;101164;;;14.78;100.00
62632;BME280;48703;51.248;-0.546;2022-07-29T00:49:25;101161;;;14.75;100.00
62632;BME280;48703;51.248;-0.546;2022-07-29T00:52:27;101157;;;14.70;100.00
62632;BME280;48703;51.248;-0.546;2022-07-29T00:55:29;101154;;;14.67;100.00
62632;BME280;48703;51.248;-0.546;2022-07-29T00:58:30;101154;;;14.62;100.00
62632;BME280;48703;51.248;-0.546;2022-07-29T01:01:32;101153;;;14.56;100.00
62632;BME280;48703;51.248;-0.546;2022-07-29T01:04:34;101155;;;14.53;100.00
62632;BME280;48703;51.248;-0.546;2022-07-29T01:07:36;101153;;;14.50;100.00
62632;BME280;48703;51.248;-0.546;2022-07-29T01:10:38;101152;;;14.47;100.00
62632;BME280;48703;51.248;-0.546;2022-07-29T01:13:40;101150;;;14.44;100.00
62632;BME280;48703;51.248;-0.546;2022-07-29T01:16:42;101147;;;14.45;100.00
62632;BME280;48703;51.248;-0.546;2022-07-29T01:19:48;101146;;;14.44;100.00
62632;BME280;48703;51.248;-0.546;2022-07-29T01:22:53;101151;;;14.43;100.00
62632;BME280;48703;51.248;-0.546;2022-07-29T01:25:54;101150;;;14.44;100.00
62632;BME280;48703;51.248;-0.546;2022-07-29T01:28:52;101150;;;14.42;100.00
62632;BME280;48703;51.248;-0.546;2022-07-29T01:31:54;101152;;;14.40;100.00
62632;BME280;48703;51.248;-0.546;2022-07-29T01:34:54;101151;;;14.39;100.00
62632;BME280;48703;51.248;-0.546;2022-07-29T01:37:55;101148;;;14.38;100.00
62632;BME280;48703;51.248;-0.546;2022-07-29T01:40:58;101145;;;14.37;100.00
62632;BME280;48703;51.248;-0.546;2022-07-29T01:43:59;101146;;;14.37;100.00
62632;BME280;48703;51.248;-0.546;2022-07-29T01:47:02;101146;;;14.38;100.00
62632;BME280;48703;51.248;-0.546;2022-07-29T01:50:03;101147;;;14.37;100.00
62632;BME280;48703;51.248;-0.546;2022-07-29T01:53:04;101143;;;14.34;100.00
62632;BME280;48703;51.248;-0.546;2022-07-29T01:56:06;101145;;;14.31;100.00
62632;BME280;48703;51.248;-0.546;2022-07-29T01:59:08;101147;;;14.30;100.00
62632;BME280;48703;51.248;-0.546;2022-07-29T02:02:10;101151;;;14.28;100.00
62632;BME280;48703;51.248;-0.546;2022-07-29T02:05:12;101153;;;14.26;100.00
62632;BME280;48703;51.248;-0.546;2022-07-29T02:08:13;101153;;;14.26;100.00
62632;BME280;48703;51.248;-0.546;2022-07-29T02:11:15;101152;;;14.25;100.00
62632;BME280;48703;51.248;-0.546;2022-07-29T02:14:17;101152;;;14.21;100.00
62632;BME280;48703;51.248;-0.546;2022-07-29T02:17:21;101151;;;14.18;100.00
62632;BME280;48703;51.248;-0.546;2022-07-29T02:20:21;101147;;;14.15;100.00
62632;BME280;48703;51.248;-0.546;2022-07-29T02:23:23;101145;;;14.13;100.00
62632;BME280;48703;51.248;-0.546;2022-07-29T02:26:25;101148;;;14.12;100.00
62632;BME280;48703;51.248;-0.546;2022-07-29T02:29:26;101150;;;14.13;100.00
62632;BME280;48703;51.248;-0.546;2022-07-29T02:32:28;101152;;;14.12;100.00
62632;BME280;48703;51.248;-0.546;2022-07-29T02:35:30;101148;;;14.07;100.00
62632;BME280;48703;51.248;-0.546;2022-07-29T02:38:32;101151;;;14.02;100.00
62632;BME280;48703;51.248;-0.546;2022-07-29T02:41:35;101151;;;13.96;100.00
62632;BME280;48703;51.248;-0.546;2022-07-29T02:44:35;101154;;;13.92;100.00
62632;BME280;48703;51.248;-0.546;2022-07-29T02:47:39;101153;;;13.88;100.00
62632;BME280;48703;51.248;-0.546;2022-07-29T02:50:41;101152;;;13.87;100.00
62632;BME280;48703;51.248;-0.546;2022-07-29T02:53:41;101146;;;13.83;100.00
62632;BME280;48703;51.248;-0.546;2022-07-29T02:56:43;101143;;;13.83;100.00
62632;BME280;48703;51.248;-0.546;2022-07-29T02:59:45;101144;;;13.82;100.00
62632;BME280;48703;51.248;-0.546;2022-07-29T03:02:49;101144;;;13.82;100.00
62632;BME280;48703;51.248;-0.546;2022-07-29T03:05:49;101147;;;13.83;100.00
62632;BME280;48703;51.248;-0.546;2022-07-29T03:08:50;101145;;;13.83;100.00
62632;BME280;48703;51.248;-0.546;2022-07-29T03:11:52;101144;;;13.84;100.00
62632;BME280;48703;51.248;-0.546;2022-07-29T03:14:54;101146;;;13.87;100.00
62632;BME280;48703;51.248;-0.546;2022-07-29T03:17:56;101150;;;13.92;100.00
62632;BME280;48703;51.248;-0.546;2022-07-29T03:20:58;101147;;;13.97;100.00
62632;BME280;48703;51.248;-0.546;2022-07-29T03:24:00;101147;;;13.99;100.00
62632;BME280;48703;51.248;-0.546;2022-07-29T03:27:02;101150;;;13.99;100.00
62632;BME280;48703;51.248;-0.546;2022-07-29T03:30:04;101149;;;14.01;100.00
62632;BME280;48703;51.248;-0.546;2022-07-29T03:33:05;101149;;;14.02;100.00
62632;BME280;48703;51.248;-0.546;2022-07-29T03:36:07;101149;;;13.97;100.00
62632;BME280;48703;51.248;-0.546;2022-07-29T03:39:09;101150;;;13.96;100.00
62632;BME280;48703;51.248;-0.546;2022-07-29T03:42:11;101152;;;13.96;100.00
62632;BME280;48703;51.248;-0.546;2022-07-29T03:45:13;101157;;;13.97;100.00
62632;BME280;48703;51.248;-0.546;2022-07-29T03:48:15;101156;;;13.95;100.00
62632;BME280;48703;51.248;-0.546;2022-07-29T03:51:16;101158;;;13.91;100.00
62632;BME280;48703;51.248;-0.546;2022-07-29T03:54:18;101156;;;13.91;100.00
62632;BME280;48703;51.248;-0.546;2022-07-29T03:57:22;101156;;;13.90;100.00
62632;BME280;48703;51.248;-0.546;2022-07-29T04:00:22;101158;;;13.87;100.00
62632;BME280;48703;51.248;-0.546;2022-07-29T04:03:24;101155;;;13.88;100.00
62632;BME280;48703;51.248;-0.546;2022-07-29T04:06:26;101158;;;13.91;100.00
62632;BME280;48703;51.248;-0.546;2022-07-29T04:09:28;101160;;;13.89;100.00
62632;BME280;48703;51.248;-0.546;2022-07-29T04:12:29;101162;;;13.87;100.00
62632;BME280;48703;51.248;-0.546;2022-07-29T04:15:31;101165;;;13.87;100.00
62632;BME280;48703;51.248;-0.546;2022-07-29T04:18:33;101161;;;13.86;100.00
62632;BME280;48703;51.248;-0.546;2022-07-29T04:21:37;101163;;;13.89;100.00
62632;BME280;48703;51.248;-0.546;2022-07-29T04:24:37;101164;;;13.90;100.00
62632;BME280;48703;51.248;-0.546;2022-07-29T04:27:39;101164;;;13.95;100.00
62632;BME280;48703;51.248;-0.546;2022-07-29T04:30:41;101167;;;13.97;100.00
62632;BME280;48703;51.248;-0.546;2022-07-29T04:33:42;101168;;;13.99;100.00
62632;BME280;48703;51.248;-0.546;2022-07-29T04:36:44;101168;;;14.02;100.00
62632;BME280;48703;51.248;-0.546;2022-07-29T04:39:46;101167;;;14.06;100.00
62632;BME280;48703;51.248;-0.546;2022-07-29T04:42:48;101169;;;14.08;100.00
62632;BME280;48703;51.248;-0.546;2022-07-29T04:45:50;101169;;;14.10;100.00
62632;BME280;48703;51.248;-0.546;2022-07-29T04:48:52;101167;;;14.09;100.00
62632;BME280;48703;51.248;-0.546;2022-07-29T04:51:54;101165;;;14.14;100.00
62632;BME280;48703;51.248;-0.546;2022-07-29T04:54:55;101161;;;14.12;100.00
62632;BME280;48703;51.248;-0.546;2022-07-29T04:57:57;101160;;;14.12;100.00
62632;BME280;48703;51.248;-0.546;2022-07-29T05:00:59;101163;;;14.14;100.00
62632;BME280;48703;51.248;-0.546;2022-07-29T05:04:01;101162;;;14.14;100.00
62632;BME280;48703;51.248;-0.546;2022-07-29T05:07:03;101164;;;14.16;100.00
62632;BME280;48703;51.248;-0.546;2022-07-29T05:10:05;101168;;;14.20;100.00
62632;BME280;48703;51.248;-0.546;2022-07-29T05:13:07;101168;;;14.26;100.00
62632;BME280;48703;51.248;-0.546;2022-07-29T05:16:08;101171;;;14.31;100.00
62632;BME280;48703;51.248;-0.546;2022-07-29T05:19:10;101173;;;14.36;100.00
62632;BME280;48703;51.248;-0.546;2022-07-29T05:22:12;101175;;;14.40;100.00
62632;BME280;48703;51.248;-0.546;2022-07-29T05:25:14;101178;;;14.44;100.00
62632;BME280;48703;51.248;-0.546;2022-07-29T05:28:16;101175;;;14.49;100.00
62632;BME280;48703;51.248;-0.546;2022-07-29T05:31:18;101177;;;14.50;100.00
62632;BME280;48703;51.248;-0.546;2022-07-29T05:34:20;101179;;;14.52;100.00
62632;BME280;48703;51.248;-0.546;2022-07-29T05:37:21;101182;;;14.54;100.00
62632;BME280;48703;51.248;-0.546;2022-07-29T05:40:23;101180;;;14.58;100.00
62632;BME280;48703;51.248;-0.546;2022-07-29T05:43:25;101183;;;14.62;100.00
62632;BME280;48703;51.248;-0.546;2022-07-29T05:46:27;101192;;;14.67;100.00
62632;BME280;48703;51.248;-0.546;2022-07-29T05:49:29;101192;;;14.72;100.00
62632;BME280;48703;51.248;-0.546;2022-07-29T05:52:31;101189;;;14.75;100.00
62632;BME280;48703;51.248;-0.546;2022-07-29T05:55:33;101196;;;14.79;100.00
62632;BME280;48703;51.248;-0.546;2022-07-29T05:58:34;101201;;;14.84;100.00
62632;BME280;48703;51.248;-0.546;2022-07-29T06:01:36;101200;;;14.90;100.00
62632;BME280;48703;51.248;-0.546;2022-07-29T06:04:38;101201;;;14.95;100.00
62632;BME280;48703;51.248;-0.546;2022-07-29T06:07:40;101206;;;15.00;100.00
62632;BME280;48703;51.248;-0.546;2022-07-29T06:10:42;101211;;;15.05;100.00
62632;BME280;48703;51.248;-0.546;2022-07-29T06:13:44;101212;;;15.09;100.00
62632;BME280;48703;51.248;-0.546;2022-07-29T06:16:46;101212;;;15.13;100.00
62632;BME280;48703;51.248;-0.546;2022-07-29T06:19:47;101212;;;15.19;100.00
62632;BME280;48703;51.248;-0.546;2022-07-29T06:22:49;101211;;;15.23;100.00
62632;BME280;48703;51.248;-0.546;2022-07-29T06:25:51;101214;;;15.28;100.00
62632;BME280;48703;51.248;-0.546;2022-07-29T06:28:53;101217;;;15.35;100.00
62632;BME280;48703;51.248;-0.546;2022-07-29T06:31:55;101217;;;15.38;100.00
62632;BME280;48703;51.248;-0.546;2022-07-29T06:34:57;101219;;;15.43;100.00
62632;BME280;48703;51.248;-0.546;2022-07-29T06:37:59;101220;;;15.49;100.00
62632;BME280;48703;51.248;-0.546;2022-07-29T06:41:00;101223;;;15.54;100.00
62632;BME280;48703;51.248;-0.546;2022-07-29T06:44:02;101220;;;15.58;100.00
62632;BME280;48703;51.248;-0.546;2022-07-29T06:47:04;101215;;;15.64;100.00
62632;BME280;48703;51.248;-0.546;2022-07-29T06:50:06;101215;;;15.69;100.00
62632;BME280;48703;51.248;-0.546;2022-07-29T06:53:08;101217;;;15.72;100.00
62632;BME280;48703;51.248;-0.546;2022-07-29T06:56:10;101220;;;15.74;100.00
62632;BME280;48703;51.248;-0.546;2022-07-29T06:59:12;101224;;;15.78;100.00
62632;BME280;48703;51.248;-0.546;2022-07-29T07:02:14;101231;;;15.82;100.00
62632;BME280;48703;51.248;-0.546;2022-07-29T07:05:15;101234;;;15.84;100.00
62632;BME280;48703;51.248;-0.546;2022-07-29T07:08:17;101235;;;15.86;100.00
62632;BME280;48703;51.248;-0.546;2022-07-29T07:11:19;101234;;;15.87;100.00
62632;BME280;48703;51.248;-0.546;2022-07-29T07:14:21;101234;;;15.88;100.00
62632;BME280;48703;51.248;-0.546;2022-07-29T07:17:23;101236;;;15.91;100.00
62632;BME280;48703;51.248;-0.546;2022-07-29T07:20:25;101236;;;15.95;100.00
62632;BME280;48703;51.248;-0.546;2022-07-29T07:23:27;101233;;;15.96;100.00
62632;BME280;48703;51.248;-0.546;2022-07-29T07:26:28;101230;;;15.98;100.00
62632;BME280;48703;51.248;-0.546;2022-07-29T07:29:30;101227;;;16.05;100.00
62632;BME280;48703;51.248;-0.546;2022-07-29T07:32:32;101229;;;16.09;100.00
62632;BME280;48703;51.248;-0.546;2022-07-29T07:35:34;101230;;;16.14;100.00
62632;BME280;48703;51.248;-0.546;2022-07-29T07:38:36;101230;;;16.19;100.00
62632;BME280;48703;51.248;-0.546;2022-07-29T07:41:38;101227;;;16.24;100.00
62632;BME280;48703;51.248;-0.546;2022-07-29T07:44:40;101230;;;16.31;100.00
62632;BME280;48703;51.248;-0.546;2022-07-29T07:47:42;101233;;;16.37;100.00
62632;BME280;48703;51.248;-0.546;2022-07-29T07:50:43;101234;;;16.42;100.00
62632;BME280;48703;51.248;-0.546;2022-07-29T07:53:45;101233;;;16.48;100.00
62632;BME280;48703;51.248;-0.546;2022-07-29T07:56:47;101234;;;16.54;100.00
62632;BME280;48703;51.248;-0.546;2022-07-29T07:59:49;101235;;;16.59;100.00
62632;BME280;48703;51.248;-0.546;2022-07-29T08:02:51;101236;;;16.66;100.00
62632;BME280;48703;51.248;-0.546;2022-07-29T08:05:53;101240;;;16.72;100.00
62632;BME280;48703;51.248;-0.546;2022-07-29T08:08:54;101242;;;16.78;100.00
62632;BME280;48703;51.248;-0.546;2022-07-29T08:11:56;101241;;;16.83;100.00
62632;BME280;48703;51.248;-0.546;2022-07-29T08:14:58;101246;;;16.90;100.00
62632;BME280;48703;51.248;-0.546;2022-07-29T08:18:00;101251;;;17.03;100.00
62632;BME280;48703;51.248;-0.546;2022-07-29T08:21:02;101252;;;17.11;100.00
62632;BME280;48703;51.248;-0.546;2022-07-29T08:24:04;101256;;;17.18;100.00
62632;BME280;48703;51.248;-0.546;2022-07-29T08:27:06;101257;;;17.22;100.00
62632;BME280;48703;51.248;-0.546;2022-07-29T08:30:08;101256;;;17.28;100.00
62632;BME280;48703;51.248;-0.546;2022-07-29T08:33:09;101255;;;17.35;100.00
62632;BME280;48703;51.248;-0.546;2022-07-29T08:36:11;101251;;;17.41;100.00
62632;BME280;48703;51.248;-0.546;2022-07-29T08:39:13;101249;;;17.50;100.00
62632;BME280;48703;51.248;-0.546;2022-07-29T08:42:15;101251;;;17.65;100.00
62632;BME280;48703;51.248;-0.546;2022-07-29T08:45:17;101250;;;17.75;99.69
62632;BME280;48703;51.248;-0.546;2022-07-29T08:48:20;101244;;;17.83;99.63
62632;BME280;48703;51.248;-0.546;2022-07-29T08:51:21;101239;;;17.97;97.32
62632;BME280;48703;51.248;-0.546;2022-07-29T08:54:22;101234;;;18.06;93.61
62632;BME280;48703;51.248;-0.546;2022-07-29T08:57:24;101235;;;18.18;94.16
62632;BME280;48703;51.248;-0.546;2022-07-29T09:00:26;101234;;;18.23;93.41
62632;BME280;48703;51.248;-0.546;2022-07-29T09:03:29;101234;;;18.28;91.90
62632;BME280;48703;51.248;-0.546;2022-07-29T09:06:31;101231;;;18.35;88.57
62632;BME280;48703;51.248;-0.546;2022-07-29T09:09:32;101235;;;18.44;81.79
62632;BME280;48703;51.248;-0.546;2022-07-29T09:12:33;101231;;;18.51;83.39
62632;BME280;48703;51.248;-0.546;2022-07-29T09:15:35;101227;;;18.56;82.81
62632;BME280;48703;51.248;-0.546;2022-07-29T09:18:38;101224;;;18.73;79.23
62632;BME280;48703;51.248;-0.546;2022-07-29T09:21:40;101225;;;18.84;78.85
62632;BME280;48703;51.248;-0.546;2022-07-29T09:24:42;101231;;;18.96;80.42
62632;BME280;48703;51.248;-0.546;2022-07-29T09:27:45;101229;;;18.99;75.97
62632;BME280;48703;51.248;-0.546;2022-07-29T09:30:53;101231;;;19.10;76.27
62632;BME280;48703;51.248;-0.546;2022-07-29T09:33:46;101232;;;19.17;77.53
62632;BME280;48703;51.248;-0.546;2022-07-29T09:36:49;101231;;;19.25;79.96
62632;BME280;48703;51.248;-0.546;2022-07-29T09:39:50;101227;;;19.35;80.47
62632;BME280;48703;51.248;-0.546;2022-07-29T09:42:52;101226;;;19.42;79.85
62632;BME280;48703;51.248;-0.546;2022-07-29T09:45:54;101226;;;19.52;77.72
62632;BME280;48703;51.248;-0.546;2022-07-29T09:49:12;101227;;;19.58;76.46
62632;BME280;48703;51.248;-0.546;2022-07-29T09:52:00;101229;;;19.65;76.93
62632;BME280;48703;51.248;-0.546;2022-07-29T09:55:08;101232;;;19.71;74.92
62632;BME280;48703;51.248;-0.546;2022-07-29T09:58:14;101233;;;19.77;72.91
62632;BME280;48703;51.248;-0.546;2022-07-29T10:01:03;101232;;;19.84;75.23
62632;BME280;48703;51.248;-0.546;2022-07-29T10:04:05;101230;;;19.92;75.72
62632;BME280;48703;51.248;-0.546;2022-07-29T10:07:07;101232;;;20.03;73.64
62632;BME280;48703;51.248;-0.546;2022-07-29T10:10:09;101227;;;20.11;74.51
62632;BME280;48703;51.248;-0.546;2022-07-29T10:13:11;101226;;;20.18;74.20
62632;BME280;48703;51.248;-0.546;2022-07-29T10:16:13;101226;;;20.26;74.10
62632;BME280;48703;51.248;-0.546;2022-07-29T10:19:14;101225;;;20.33;72.63
62632;BME280;48703;51.248;-0.546;2022-07-29T10:22:16;101226;;;20.41;70.80
62632;BME280;48703;51.248;-0.546;2022-07-29T10:25:18;101223;;;20.44;72.31
62632;BME280;48703;51.248;-0.546;2022-07-29T10:28:20;101218;;;20.47;70.75
62632;BME280;48703;51.248;-0.546;2022-07-29T10:31:22;101217;;;20.53;71.90
62632;BME280;48703;51.248;-0.546;2022-07-29T10:34:27;101217;;;20.59;70.79
62632;BME280;48703;51.248;-0.546;2022-07-29T10:37:28;101218;;;20.71;67.51
62632;BME280;48703;51.248;-0.546;2022-07-29T10:40:30;101215;;;20.79;65.66
62632;BME280;48703;51.248;-0.546;2022-07-29T10:43:31;101215;;;20.89;66.39
62632;BME280;48703;51.248;-0.546;2022-07-29T10:46:34;101215;;;20.97;66.59
62632;BME280;48703;51.248;-0.546;2022-07-29T10:49:33;101216;;;21.00;65.29
62632;BME280;48703;51.248;-0.546;2022-07-29T10:52:54;101211;;;21.06;65.40
62632;BME280;48703;51.248;-0.546;2022-07-29T10:55:37;101211;;;21.11;66.04
62632;BME280;48703;51.248;-0.546;2022-07-29T10:58:39;101208;;;21.17;61.93
62632;BME280;48703;51.248;-0.546;2022-07-29T11:01:40;101212;;;21.27;60.85
62632;BME280;48703;51.248;-0.546;2022-07-29T11:04:58;101209;;;21.33;61.51
62632;BME280;48703;51.248;-0.546;2022-07-29T11:08:18;101212;;;21.39;60.54
62632;BME280;48703;51.248;-0.546;2022-07-29T11:10:46;101214;;;21.44;60.24
62632;BME280;48703;51.248;-0.546;2022-07-29T11:13:48;101221;;;21.47;58.87
62632;BME280;48703;51.248;-0.546;2022-07-29T11:16:58;101223;;;21.54;58.26
62632;BME280;48703;51.248;-0.546;2022-07-29T11:19:52;101223;;;21.55;58.97
62632;BME280;48703;51.248;-0.546;2022-07-29T11:22:53;101218;;;21.56;59.47
62632;BME280;48703;51.248;-0.546;2022-07-29T11:26:28;101216;;;21.55;57.48
62632;BME280;48703;51.248;-0.546;2022-07-29T11:28:59;101220;;;21.56;59.79
62632;BME280;48703;51.248;-0.546;2022-07-29T11:32:07;101222;;;21.60;59.99
62632;BME280;48703;51.248;-0.546;2022-07-29T11:35:17;101222;;;21.66;58.53
62632;BME280;48703;51.248;-0.546;2022-07-29T11:38:36;101219;;;21.71;57.40
62632;BME280;48703;51.248;-0.546;2022-07-29T11:41:21;101216;;;21.76;57.33
62632;BME280;48703;51.248;-0.546;2022-07-29T11:44:06;101212;;;21.84;54.96
62632;BME280;48703;51.248;-0.546;2022-07-29T11:47:08;101208;;;21.88;55.01
62632;BME280;48703;51.248;-0.546;2022-07-29T11:50:11;101205;;;21.95;55.90
62632;BME280;48703;51.248;-0.546;2022-07-29T11:53:12;101206;;;21.98;54.23
62632;BME280;48703;51.248;-0.546;2022-07-29T11:56:14;101210;;;22.04;53.24
62632;BME280;48703;51.248;-0.546;2022-07-29T11:59:16;101208;;;22.08;53.86
62632;BME280;48703;51.248;-0.546;2022-07-29T12:02:18;101206;;;22.08;53.36
62632;BME280;48703;51.248;-0.546;2022-07-29T12:05:19;101208;;;22.14;53.28
62632;BME280;48703;51.248;-0.546;2022-07-29T12:08:22;101203;;;22.25;54.72
62632;BME280;48703;51.248;-0.546;2022-07-29T12:11:23;101206;;;22.29;55.08
62632;BME280;48703;51.248;-0.546;2022-07-29T12:14:26;101207;;;22.33;53.49
62632;BME280;48703;51.248;-0.546;2022-07-29T12:16:35;101207;;;22.41;51.51
62632;BME280;48703;51.248;-0.546;2022-07-29T12:19:28;101203;;;22.53;51.64
62632;BME280;48703;51.248;-0.546;2022-07-29T12:22:31;101203;;;22.69;51.37
62632;BME280;48703;51.248;-0.546;2022-07-29T12:25:34;101197;;;22.80;50.13
62632;BME280;48703;51.248;-0.546;2022-07-29T12:28:36;101192;;;22.83;49.47
62632;BME280;48703;51.248;-0.546;2022-07-29T12:31:36;101187;;;22.83;50.16
62632;BME280;48703;51.248;-0.546;2022-07-29T12:34:37;101184;;;22.82;48.47
62632;BME280;48703;51.248;-0.546;2022-07-29T12:37:40;101189;;;22.82;48.57
62632;BME280;48703;51.248;-0.546;2022-07-29T12:40:42;101193;;;22.79;49.27
62632;BME280;48703;51.248;-0.546;2022-07-29T12:43:51;101190;;;22.80;50.16
62632;BME280;48703;51.248;-0.546;2022-07-29T12:46:45;101180;;;22.78;50.62
62632;BME280;48703;51.248;-0.546;2022-07-29T12:49:47;101176;;;22.74;48.85
62632;BME280;48703;51.248;-0.546;2022-07-29T12:52:49;101176;;;22.75;50.26
62632;BME280;48703;51.248;-0.546;2022-07-29T12:55:51;101173;;;22.80;49.96
62632;BME280;48703;51.248;-0.546;2022-07-29T12:58:52;101177;;;22.93;48.96
62632;BME280;48703;51.248;-0.546;2022-07-29T13:01:54;101179;;;23.01;50.18
62632;BME280;48703;51.248;-0.546;2022-07-29T13:04:56;101177;;;23.10;48.94
62632;BME280;48703;51.248;-0.546;2022-07-29T13:08:09;101179;;;23.19;48.36
62632;BME280;48703;51.248;-0.546;2022-07-29T13:11:00;101185;;;23.31;47.68
62632;BME280;48703;51.248;-0.546;2022-07-29T13:14:02;101186;;;23.42;49.11
62632;BME280;48703;51.248;-0.546;2022-07-29T13:17:04;101184;;;23.49;47.92
62632;BME280;48703;51.248;-0.546;2022-07-29T13:20:07;101181;;;23.57;48.18
62632;BME280;48703;51.248;-0.546;2022-07-29T13:23:07;101178;;;23.66;48.19
62632;BME280;48703;51.248;-0.546;2022-07-29T13:26:10;101174;;;23.75;47.96
62632;BME280;48703;51.248;-0.546;2022-07-29T13:29:11;101180;;;23.88;46.86
62632;BME280;48703;51.248;-0.546;2022-07-29T13:32:13;101179;;;23.97;48.08
62632;BME280;48703;51.248;-0.546;2022-07-29T13:35:15;101181;;;24.02;47.24
62632;BME280;48703;51.248;-0.546;2022-07-29T13:38:16;101177;;;24.08;45.57
62632;BME280;48703;51.248;-0.546;2022-07-29T13:41:18;101175;;;24.12;46.64
62632;BME280;48703;51.248;-0.546;2022-07-29T13:44:20;101177;;;24.16;45.33
62632;BME280;48703;51.248;-0.546;2022-07-29T13:47:22;101177;;;24.10;46.61
62632;BME280;48703;51.248;-0.546;2022-07-29T13:50:24;101173;;;24.05;46.61
62632;BME280;48703;51.248;-0.546;2022-07-29T13:53:26;101172;;;24.09;45.86
62632;BME280;48703;51.248;-0.546;2022-07-29T13:56:28;101172;;;24.17;45.06
62632;BME280;48703;51.248;-0.546;2022-07-29T13:59:30;101170;;;24.25;45.49
62632;BME280;48703;51.248;-0.546;2022-07-29T14:02:31;101168;;;24.33;46.30
62632;BME280;48703;51.248;-0.546;2022-07-29T14:05:33;101170;;;24.39;44.87
62632;BME280;48703;51.248;-0.546;2022-07-29T14:08:35;101167;;;24.49;43.78
62632;BME280;48703;51.248;-0.546;2022-07-29T14:11:37;101168;;;24.57;44.36
62632;BME280;48703;51.248;-0.546;2022-07-29T14:14:39;101166;;;24.68;45.28
62632;BME280;48703;51.248;-0.546;2022-07-29T14:17:41;101161;;;24.77;44.19
62632;BME280;48703;51.248;-0.546;2022-07-29T14:20:43;101161;;;24.89;43.20
62632;BME280;48703;51.248;-0.546;2022-07-29T14:23:44;101162;;;24.95;42.38
62632;BME280;48703;51.248;-0.546;2022-07-29T14:26:46;101161;;;24.90;42.10
62632;BME280;48703;51.248;-0.546;2022-07-29T14:29:48;101167;;;24.81;41.93
62632;BME280;48703;51.248;-0.546;2022-07-29T14:32:50;101170;;;24.76;42.89
62632;BME280;48703;51.248;-0.546;2022-07-29T14:35:52;101172;;;24.69;42.68
62632;BME280;48703;51.248;-0.546;2022-07-29T14:38:54;101173;;;24.73;42.77
62632;BME280;48703;51.248;-0.546;2022-07-29T14:41:55;101172;;;24.84;42.57
62632;BME280;48703;51.248;-0.546;2022-07-29T14:44:57;101168;;;25.03;42.14
62632;BME280;48703;51.248;-0.546;2022-07-29T14:47:59;101164;;;25.21;41.94
62632;BME280;48703;51.248;-0.546;2022-07-29T14:51:01;101161;;;25.42;42.41
62632;BME280;48703;51.248;-0.546;2022-07-29T14:54:03;101155;;;25.57;42.17
62632;BME280;48703;51.248;-0.546;2022-07-29T14:57:05;101150;;;25.69;41.81
62632;BME280;48703;51.248;-0.546;2022-07-29T15:00:07;101145;;;25.74;41.14
62632;BME280;48703;51.248;-0.546;2022-07-29T15:03:09;101144;;;25.83;41.10
62632;BME280;48703;51.248;-0.546;2022-07-29T15:06:10;101143;;;26.01;40.82
62632;BME280;48703;51.248;-0.546;2022-07-29T15:09:12;101139;;;26.11;40.93
62632;BME280;48703;51.248;-0.546;2022-07-29T15:12:14;101139;;;26.05;39.77
62632;BME280;48703;51.248;-0.546;2022-07-29T15:15:16;101141;;;25.92;40.92
62632;BME280;48703;51.248;-0.546;2022-07-29T15:18:18;101142;;;25.81;41.81
62632;BME280;48703;51.248;-0.546;2022-07-29T15:21:20;101140;;;25.68;40.94
62632;BME280;48703;51.248;-0.546;2022-07-29T15:24:22;101139;;;25.60;41.57
62632;BME280;48703;51.248;-0.546;2022-07-29T15:27:23;101146;;;25.55;41.20
62632;BME280;48703;51.248;-0.546;2022-07-29T15:30:25;101146;;;25.50;40.64
62632;BME280;48703;51.248;-0.546;2022-07-29T15:33:27;101146;;;25.50;42.73
62632;BME280;48703;51.248;-0.546;2022-07-29T15:36:29;101143;;;25.48;40.73
62632;BME280;48703;51.248;-0.546;2022-07-29T15:39:31;101141;;;25.49;42.79
62632;BME280;48703;51.248;-0.546;2022-07-29T15:42:33;101138;;;25.48;41.32
62632;BME280;48703;51.248;-0.546;2022-07-29T15:45:35;101140;;;25.45;41.24
62632;BME280;48703;51.248;-0.546;2022-07-29T15:48:37;101143;;;25.46;41.90
62632;BME280;48703;51.248;-0.546;2022-07-29T15:51:38;101143;;;25.43;40.95
62632;BME280;48703;51.248;-0.546;2022-07-29T15:54:40;101142;;;25.47;42.96
62632;BME280;48703;51.248;-0.546;2022-07-29T15:57:42;101141;;;25.47;42.07
62632;BME280;48703;51.248;-0.546;2022-07-29T16:00:44;101139;;;25.40;41.08
62632;BME280;48703;51.248;-0.546;2022-07-29T16:03:46;101138;;;25.47;41.67
62632;BME280;48703;51.248;-0.546;2022-07-29T16:06:48;101137;;;25.52;42.60